sensor_id;sensor_type;location;lat;lon;timestamp;P1;durP1;ratioP1;P2;durP2;ratioP2
84150;SDS011;74270;52.362;4.886;2023-11-19T00:01:40;12.63;;;6.80;;
84150;SDS011;74270;52.362;4.886;2023-11-19T00:04:06;13.00;;;7.72;;
84150;SDS011;74270;52.362;4.886;2023-11-19T00:06:33;14.27;;;7.63;;
84150;SDS011;74270;52.362;4.886;2023-11-19T00:08:59;18.67;;;7.60;;
84150;SDS011;74270;52.362;4.886;2023-11-19T00:11:25;11.70;;;7.45;;
84150;SDS011;74270;52.362;4.886;2023-11-19T00:13:51;12.32;;;7.45;;
84150;SDS011;74270;52.362;4.886;2023-11-19T00:16:17;10.80;;;7.47;;
84150;SDS011;74270;52.362;4.886;2023-11-19T00:18:43;12.73;;;7.30;;
84150;SDS011;74270;52.362;4.886;2023-11-19T00:21:09;12.55;;;7.32;;
84150;SDS011;74270;52.362;4.886;2023-11-19T00:23:35;12.43;;;7.20;;
84150;SDS011;74270;52.362;4.886;2023-11-19T00:26:01;11.95;;;7.03;;
84150;SDS011;74270;52.362;4.886;2023-11-19T00:28:27;11.15;;;7.05;;
84150;SDS011;74270;52.362;4.886;2023-11-19T00:30:53;12.27;;;7.07;;
84150;SDS011;74270;52.362;4.886;2023-11-19T00:33:20;9.13;;;6.35;;
84150;SDS011;74270;52.362;4.886;2023-11-19T00:35:46;12.55;;;6.65;;
84150;SDS011;74270;52.362;4.886;2023-11-19T00:38:12;11.57;;;6.40;;
84150;SDS011;74270;52.362;4.886;2023-11-19T00:40:38;10.45;;;6.72;;
84150;SDS011;74270;52.362;4.886;2023-11-19T00:43:05;9.30;;;6.22;;
84150;SDS011;74270;52.362;4.886;2023-11-19T00:45:32;14.07;;;7.20;;
84150;SDS011;74270;52.362;4.886;2023-11-19T00:47:58;11.32;;;6.68;;
84150;SDS011;74270;52.362;4.886;2023-11-19T00:50:25;10.73;;;6.35;;
84150;SDS011;74270;52.362;4.886;2023-11-19T00:52:51;11.10;;;6.82;;
84150;SDS011;74270;52.362;4.886;2023-11-19T00:55:17;9.77;;;6.45;;
84150;SDS011;74270;52.362;4.886;2023-11-19T00:57:43;10.32;;;6.07;;
84150;SDS011;74270;52.362;4.886;2023-11-19T01:00:09;10.60;;;6.60;;
84150;SDS011;74270;52.362;4.886;2023-11-19T01:02:45;11.25;;;6.20;;
84150;SDS011;74270;52.362;4.886;2023-11-19T01:05:11;9.98;;;6.10;;
84150;SDS011;74270;52.362;4.886;2023-11-19T01:07:40;9.18;;;5.55;;
84150;SDS011;74270;52.362;4.886;2023-11-19T01:10:06;10.02;;;6.00;;
84150;SDS011;74270;52.362;4.886;2023-11-19T01:12:33;11.98;;;5.95;;
84150;SDS011;74270;52.362;4.886;2023-11-19T01:14:59;9.57;;;5.40;;
84150;SDS011;74270;52.362;4.886;2023-11-19T01:17:26;10.50;;;5.78;;
84150;SDS011;74270;52.362;4.886;2023-11-19T01:19:52;9.38;;;5.63;;
84150;SDS011;74270;52.362;4.886;2023-11-19T01:22:18;11.38;;;5.93;;
84150;SDS011;74270;52.362;4.886;2023-11-19T01:24:44;9.70;;;5.45;;
84150;SDS011;74270;52.362;4.886;2023-11-19T01:27:10;11.52;;;6.07;;
84150;SDS011;74270;52.362;4.886;2023-11-19T01:29:36;8.27;;;5.50;;
84150;SDS011;74270;52.362;4.886;2023-11-19T01:32:03;9.10;;;5.35;;
84150;SDS011;74270;52.362;4.886;2023-11-19T01:34:29;9.48;;;5.47;;
84150;SDS011;74270;52.362;4.886;2023-11-19T01:36:55;10.70;;;5.65;;
84150;SDS011;74270;52.362;4.886;2023-11-19T01:39:21;9.40;;;5.25;;
84150;SDS011;74270;52.362;4.886;2023-11-19T01:41:47;9.65;;;5.38;;
84150;SDS011;74270;52.362;4.886;2023-11-19T01:44:13;10.63;;;5.63;;
84150;SDS011;74270;52.362;4.886;2023-11-19T01:46:42;8.50;;;5.25;;
84150;SDS011;74270;52.362;4.886;2023-11-19T01:49:10;10.90;;;5.50;;
84150;SDS011;74270;52.362;4.886;2023-11-19T01:51:36;10.57;;;4.72;;
84150;SDS011;74270;52.362;4.886;2023-11-19T01:54:03;8.55;;;4.65;;
84150;SDS011;74270;52.362;4.886;2023-11-19T01:56:29;8.70;;;5.32;;
84150;SDS011;74270;52.362;4.886;2023-11-19T01:58:56;10.15;;;5.05;;
84150;SDS011;74270;52.362;4.886;2023-11-19T02:01:22;9.82;;;5.05;;
84150;SDS011;74270;52.362;4.886;2023-11-19T02:03:49;10.98;;;5.38;;
84150;SDS011;74270;52.362;4.886;2023-11-19T02:06:15;8.70;;;5.43;;
84150;SDS011;74270;52.362;4.886;2023-11-19T02:08:41;8.88;;;5.05;;
84150;SDS011;74270;52.362;4.886;2023-11-19T02:11:07;7.05;;;4.78;;
84150;SDS011;74270;52.362;4.886;2023-11-19T02:13:33;8.68;;;4.75;;
84150;SDS011;74270;52.362;4.886;2023-11-19T02:16:01;11.30;;;4.90;;
84150;SDS011;74270;52.362;4.886;2023-11-19T02:18:28;8.18;;;4.70;;
84150;SDS011;74270;52.362;4.886;2023-11-19T02:20:57;9.07;;;4.82;;
84150;SDS011;74270;52.362;4.886;2023-11-19T02:23:25;9.82;;;4.97;;
84150;SDS011;74270;52.362;4.886;2023-11-19T02:25:55;13.48;;;5.47;;
84150;SDS011;74270;52.362;4.886;2023-11-19T02:28:24;8.32;;;4.47;;
84150;SDS011;74270;52.362;4.886;2023-11-19T02:30:50;11.55;;;5.07;;
84150;SDS011;74270;52.362;4.886;2023-11-19T02:33:16;10.85;;;4.82;;
84150;SDS011;74270;52.362;4.886;2023-11-19T02:35:42;9.45;;;4.85;;
84150;SDS011;74270;52.362;4.886;2023-11-19T02:38:07;8.32;;;4.65;;
84150;SDS011;74270;52.362;4.886;2023-11-19T02:40:34;9.38;;;4.70;;
84150;SDS011;74270;52.362;4.886;2023-11-19T02:43:00;10.05;;;4.43;;
84150;SDS011;74270;52.362;4.886;2023-11-19T02:45:26;8.50;;;4.18;;
84150;SDS011;74270;52.362;4.886;2023-11-19T02:47:53;8.77;;;4.60;;
84150;SDS011;74270;52.362;4.886;2023-11-19T02:50:20;8.60;;;4.63;;
84150;SDS011;74270;52.362;4.886;2023-11-19T02:52:53;8.82;;;4.40;;
84150;SDS011;74270;52.362;4.886;2023-11-19T02:55:21;9.27;;;4.15;;
84150;SDS011;74270;52.362;4.886;2023-11-19T02:57:48;8.30;;;4.72;;
84150;SDS011;74270;52.362;4.886;2023-11-19T03:00:18;8.90;;;4.43;;
84150;SDS011;74270;52.362;4.886;2023-11-19T03:02:48;8.52;;;4.53;;
84150;SDS011;74270;52.362;4.886;2023-11-19T03:05:23;7.00;;;4.47;;
84150;SDS011;74270;52.362;4.886;2023-11-19T03:07:49;8.02;;;4.43;;
84150;SDS011;74270;52.362;4.886;2023-11-19T03:10:15;10.50;;;4.38;;
84150;SDS011;74270;52.362;4.886;2023-11-19T03:12:42;11.00;;;4.60;;
84150;SDS011;74270;52.362;4.886;2023-11-19T03:15:08;9.80;;;4.57;;
84150;SDS011;74270;52.362;4.886;2023-11-19T03:17:35;7.13;;;4.00;;
84150;SDS011;74270;52.362;4.886;2023-11-19T03:20:02;9.07;;;4.03;;
84150;SDS011;74270;52.362;4.886;2023-11-19T03:22:28;11.27;;;4.68;;
84150;SDS011;74270;52.362;4.886;2023-11-19T03:24:54;9.95;;;4.70;;
84150;SDS011;74270;52.362;4.886;2023-11-19T03:27:21;10.15;;;3.67;;
84150;SDS011;74270;52.362;4.886;2023-11-19T03:29:47;7.25;;;3.53;;
84150;SDS011;74270;52.362;4.886;2023-11-19T03:32:13;12.05;;;3.90;;
84150;SDS011;74270;52.362;4.886;2023-11-19T03:34:40;7.60;;;3.53;;
84150;SDS011;74270;52.362;4.886;2023-11-19T03:37:06;8.52;;;3.63;;
84150;SDS011;74270;52.362;4.886;2023-11-19T03:39:32;6.72;;;3.58;;
84150;SDS011;74270;52.362;4.886;2023-11-19T03:41:58;7.70;;;3.88;;
84150;SDS011;74270;52.362;4.886;2023-11-19T03:44:25;7.70;;;3.88;;
84150;SDS011;74270;52.362;4.886;2023-11-19T03:46:52;8.13;;;3.50;;
84150;SDS011;74270;52.362;4.886;2023-11-19T03:49:18;8.63;;;4.03;;
84150;SDS011;74270;52.362;4.886;2023-11-19T03:51:44;6.15;;;3.58;;
84150;SDS011;74270;52.362;4.886;2023-11-19T03:54:09;5.85;;;3.60;;
84150;SDS011;74270;52.362;4.886;2023-11-19T03:56:36;9.20;;;3.83;;
84150;SDS011;74270;52.362;4.886;2023-11-19T03:59:02;11.00;;;3.65;;
84150;SDS011;74270;52.362;4.886;2023-11-19T04:01:28;6.85;;;3.70;;
84150;SDS011;74270;52.362;4.886;2023-11-19T04:03:54;8.00;;;3.85;;
84150;SDS011;74270;52.362;4.886;2023-11-19T04:06:21;8.15;;;3.20;;
84150;SDS011;74270;52.362;4.886;2023-11-19T04:08:47;9.35;;;3.40;;
84150;SDS011;74270;52.362;4.886;2023-11-19T04:11:13;8.63;;;3.90;;
84150;SDS011;74270;52.362;4.886;2023-11-19T04:13:38;7.10;;;3.60;;
84150;SDS011;74270;52.362;4.886;2023-11-19T04:16:04;7.10;;;3.33;;
84150;SDS011;74270;52.362;4.886;2023-11-19T04:18:31;7.88;;;3.38;;
84150;SDS011;74270;52.362;4.886;2023-11-19T04:20:57;6.10;;;3.35;;
84150;SDS011;74270;52.362;4.886;2023-11-19T04:23:23;6.95;;;3.50;;
84150;SDS011;74270;52.362;4.886;2023-11-19T04:25:52;12.00;;;4.30;;
84150;SDS011;74270;52.362;4.886;2023-11-19T04:28:18;8.82;;;3.47;;
84150;SDS011;74270;52.362;4.886;2023-11-19T04:30:44;9.55;;;3.45;;
84150;SDS011;74270;52.362;4.886;2023-11-19T04:33:10;6.28;;;2.83;;
84150;SDS011;74270;52.362;4.886;2023-11-19T04:35:36;7.35;;;3.35;;
84150;SDS011;74270;52.362;4.886;2023-11-19T04:38:02;6.03;;;3.10;;
84150;SDS011;74270;52.362;4.886;2023-11-19T04:40:28;7.75;;;3.10;;
84150;SDS011;74270;52.362;4.886;2023-11-19T04:42:54;8.55;;;3.55;;
84150;SDS011;74270;52.362;4.886;2023-11-19T04:45:20;5.18;;;2.92;;
84150;SDS011;74270;52.362;4.886;2023-11-19T04:47:46;7.22;;;3.58;;
84150;SDS011;74270;52.362;4.886;2023-11-19T04:50:12;6.75;;;3.33;;
84150;SDS011;74270;52.362;4.886;2023-11-19T04:52:38;10.95;;;3.40;;
84150;SDS011;74270;52.362;4.886;2023-11-19T04:55:10;10.90;;;3.45;;
84150;SDS011;74270;52.362;4.886;2023-11-19T04:57:39;6.43;;;3.13;;
84150;SDS011;74270;52.362;4.886;2023-11-19T05:00:05;9.25;;;2.97;;
84150;SDS011;74270;52.362;4.886;2023-11-19T05:02:33;7.43;;;3.10;;
84150;SDS011;74270;52.362;4.886;2023-11-19T05:04:58;7.43;;;2.85;;
84150;SDS011;74270;52.362;4.886;2023-11-19T05:07:24;10.60;;;3.70;;
84150;SDS011;74270;52.362;4.886;2023-11-19T05:09:51;13.65;;;3.80;;
84150;SDS011;74270;52.362;4.886;2023-11-19T05:12:17;10.35;;;3.05;;
84150;SDS011;74270;52.362;4.886;2023-11-19T05:14:43;5.75;;;2.80;;
84150;SDS011;74270;52.362;4.886;2023-11-19T05:17:14;6.78;;;2.90;;
84150;SDS011;74270;52.362;4.886;2023-11-19T05:19:40;8.00;;;2.95;;
84150;SDS011;74270;52.362;4.886;2023-11-19T05:22:06;7.50;;;3.22;;
84150;SDS011;74270;52.362;4.886;2023-11-19T05:24:32;7.45;;;2.92;;
84150;SDS011;74270;52.362;4.886;2023-11-19T05:26:59;7.63;;;3.03;;
84150;SDS011;74270;52.362;4.886;2023-11-19T05:29:24;7.85;;;3.38;;
84150;SDS011;74270;52.362;4.886;2023-11-19T05:31:50;7.43;;;2.72;;
84150;SDS011;74270;52.362;4.886;2023-11-19T05:34:16;6.57;;;2.70;;
84150;SDS011;74270;52.362;4.886;2023-11-19T05:36:42;6.30;;;2.78;;
84150;SDS011;74270;52.362;4.886;2023-11-19T05:39:08;5.50;;;2.88;;
84150;SDS011;74270;52.362;4.886;2023-11-19T05:41:36;8.50;;;3.10;;
84150;SDS011;74270;52.362;4.886;2023-11-19T05:44:02;8.68;;;2.80;;
84150;SDS011;74270;52.362;4.886;2023-11-19T05:46:28;5.50;;;2.60;;
84150;SDS011;74270;52.362;4.886;2023-11-19T05:48:54;6.07;;;2.75;;
84150;SDS011;74270;52.362;4.886;2023-11-19T05:51:20;6.78;;;2.63;;
84150;SDS011;74270;52.362;4.886;2023-11-19T05:53:46;7.18;;;2.50;;
84150;SDS011;74270;52.362;4.886;2023-11-19T05:56:12;5.75;;;2.33;;
84150;SDS011;74270;52.362;4.886;2023-11-19T05:58:41;5.75;;;2.50;;
84150;SDS011;74270;52.362;4.886;2023-11-19T06:01:09;6.55;;;2.50;;
84150;SDS011;74270;52.362;4.886;2023-11-19T06:03:35;8.45;;;2.67;;
84150;SDS011;74270;52.362;4.886;2023-11-19T06:06:01;8.02;;;2.55;;
84150;SDS011;74270;52.362;4.886;2023-11-19T06:08:27;6.10;;;2.72;;
84150;SDS011;74270;52.362;4.886;2023-11-19T06:10:55;7.30;;;2.45;;
84150;SDS011;74270;52.362;4.886;2023-11-19T06:13:21;7.25;;;2.50;;
84150;SDS011;74270;52.362;4.886;2023-11-19T06:15:47;5.82;;;2.40;;
84150;SDS011;74270;52.362;4.886;2023-11-19T06:18:13;6.53;;;2.47;;
84150;SDS011;74270;52.362;4.886;2023-11-19T06:20:40;6.78;;;2.22;;
84150;SDS011;74270;52.362;4.886;2023-11-19T06:23:06;5.72;;;2.40;;
84150;SDS011;74270;52.362;4.886;2023-11-19T06:25:32;5.50;;;2.50;;
84150;SDS011;74270;52.362;4.886;2023-11-19T06:28:00;6.50;;;2.40;;
84150;SDS011;74270;52.362;4.886;2023-11-19T06:30:26;6.68;;;2.30;;
84150;SDS011;74270;52.362;4.886;2023-11-19T06:32:53;6.28;;;2.38;;
84150;SDS011;74270;52.362;4.886;2023-11-19T06:35:19;7.00;;;2.67;;
84150;SDS011;74270;52.362;4.886;2023-11-19T06:37:45;8.10;;;2.47;;
84150;SDS011;74270;52.362;4.886;2023-11-19T06:40:11;5.00;;;2.30;;
84150;SDS011;74270;52.362;4.886;2023-11-19T06:42:37;7.20;;;2.50;;
84150;SDS011;74270;52.362;4.886;2023-11-19T06:45:04;7.47;;;2.35;;
84150;SDS011;74270;52.362;4.886;2023-11-19T06:47:31;7.03;;;3.08;;
84150;SDS011;74270;52.362;4.886;2023-11-19T06:49:57;8.48;;;2.30;;
84150;SDS011;74270;52.362;4.886;2023-11-19T06:52:23;5.20;;;2.38;;
84150;SDS011;74270;52.362;4.886;2023-11-19T06:54:50;5.57;;;2.58;;
84150;SDS011;74270;52.362;4.886;2023-11-19T06:57:16;6.53;;;2.60;;
84150;SDS011;74270;52.362;4.886;2023-11-19T06:59:42;5.10;;;2.35;;
84150;SDS011;74270;52.362;4.886;2023-11-19T07:02:09;5.43;;;2.30;;
84150;SDS011;74270;52.362;4.886;2023-11-19T07:04:34;4.90;;;2.08;;
84150;SDS011;74270;52.362;4.886;2023-11-19T07:07:00;5.07;;;2.13;;
84150;SDS011;74270;52.362;4.886;2023-11-19T07:09:26;5.95;;;2.00;;
84150;SDS011;74270;52.362;4.886;2023-11-19T07:11:52;10.13;;;2.30;;
84150;SDS011;74270;52.362;4.886;2023-11-19T07:14:18;4.32;;;2.08;;
84150;SDS011;74270;52.362;4.886;2023-11-19T07:16:44;5.72;;;2.17;;
84150;SDS011;74270;52.362;4.886;2023-11-19T07:19:15;5.07;;;2.30;;
84150;SDS011;74270;52.362;4.886;2023-11-19T07:21:41;5.40;;;2.33;;
84150;SDS011;74270;52.362;4.886;2023-11-19T07:24:09;5.53;;;2.00;;
84150;SDS011;74270;52.362;4.886;2023-11-19T07:26:35;6.05;;;2.20;;
84150;SDS011;74270;52.362;4.886;2023-11-19T07:29:02;10.63;;;2.42;;
84150;SDS011;74270;52.362;4.886;2023-11-19T07:31:28;7.78;;;2.13;;
84150;SDS011;74270;52.362;4.886;2023-11-19T07:33:54;8.00;;;2.30;;
84150;SDS011;74270;52.362;4.886;2023-11-19T07:36:20;5.47;;;1.90;;
84150;SDS011;74270;52.362;4.886;2023-11-19T07:38:46;4.95;;;2.00;;
84150;SDS011;74270;52.362;4.886;2023-11-19T07:41:15;5.32;;;1.80;;
84150;SDS011;74270;52.362;4.886;2023-11-19T07:43:44;4.03;;;1.60;;
84150;SDS011;74270;52.362;4.886;2023-11-19T07:46:11;5.43;;;2.15;;
84150;SDS011;74270;52.362;4.886;2023-11-19T07:48:38;6.10;;;2.00;;
84150;SDS011;74270;52.362;4.886;2023-11-19T07:51:04;7.47;;;2.10;;
84150;SDS011;74270;52.362;4.886;2023-11-19T07:53:30;5.35;;;1.80;;
84150;SDS011;74270;52.362;4.886;2023-11-19T07:55:57;7.07;;;1.83;;
84150;SDS011;74270;52.362;4.886;2023-11-19T07:58:24;6.03;;;2.38;;
84150;SDS011;74270;52.362;4.886;2023-11-19T08:00:51;6.00;;;1.98;;
84150;SDS011;74270;52.362;4.886;2023-11-19T08:03:17;7.93;;;2.35;;
84150;SDS011;74270;52.362;4.886;2023-11-19T08:05:47;5.95;;;2.15;;
84150;SDS011;74270;52.362;4.886;2023-11-19T08:08:13;7.93;;;1.98;;
84150;SDS011;74270;52.362;4.886;2023-11-19T08:13:04;5.45;;;2.10;;
84150;SDS011;74270;52.362;4.886;2023-11-19T08:15:30;8.70;;;2.25;;
84150;SDS011;74270;52.362;4.886;2023-11-19T08:17:56;5.95;;;1.92;;
84150;SDS011;74270;52.362;4.886;2023-11-19T08:20:22;7.95;;;2.38;;
84150;SDS011;74270;52.362;4.886;2023-11-19T08:22:48;5.53;;;2.20;;
84150;SDS011;74270;52.362;4.886;2023-11-19T08:25:14;9.18;;;2.50;;
84150;SDS011;74270;52.362;4.886;2023-11-19T08:27:40;8.40;;;2.10;;
84150;SDS011;74270;52.362;4.886;2023-11-19T08:30:08;8.75;;;1.80;;
84150;SDS011;74270;52.362;4.886;2023-11-19T08:32:34;7.22;;;2.13;;
84150;SDS011;74270;52.362;4.886;2023-11-19T08:35:00;10.80;;;2.38;;
84150;SDS011;74270;52.362;4.886;2023-11-19T08:37:26;5.10;;;2.05;;
84150;SDS011;74270;52.362;4.886;2023-11-19T08:39:53;7.93;;;1.90;;
84150;SDS011;74270;52.362;4.886;2023-11-19T08:42:19;7.60;;;2.00;;
84150;SDS011;74270;52.362;4.886;2023-11-19T08:44:49;9.00;;;1.98;;
84150;SDS011;74270;52.362;4.886;2023-11-19T08:47:15;5.72;;;2.00;;
84150;SDS011;74270;52.362;4.886;2023-11-19T08:49:43;9.07;;;2.20;;
84150;SDS011;74270;52.362;4.886;2023-11-19T08:52:09;7.80;;;2.25;;
84150;SDS011;74270;52.362;4.886;2023-11-19T08:54:35;7.75;;;1.98;;
84150;SDS011;74270;52.362;4.886;2023-11-19T08:57:01;6.38;;;2.03;;
84150;SDS011;74270;52.362;4.886;2023-11-19T08:59:28;4.90;;;2.13;;
84150;SDS011;74270;52.362;4.886;2023-11-19T09:01:54;8.23;;;2.25;;
84150;SDS011;74270;52.362;4.886;2023-11-19T09:04:20;9.85;;;2.47;;
84150;SDS011;74270;52.362;4.886;2023-11-19T09:06:49;7.75;;;2.58;;
84150;SDS011;74270;52.362;4.886;2023-11-19T09:09:15;5.18;;;2.20;;
84150;SDS011;74270;52.362;4.886;2023-11-19T09:11:41;7.50;;;2.40;;
84150;SDS011;74270;52.362;4.886;2023-11-19T09:14:07;6.47;;;2.17;;
84150;SDS011;74270;52.362;4.886;2023-11-19T09:16:33;7.60;;;2.20;;
84150;SDS011;74270;52.362;4.886;2023-11-19T09:18:59;7.75;;;2.30;;
84150;SDS011;74270;52.362;4.886;2023-11-19T09:21:27;7.25;;;2.15;;
84150;SDS011;74270;52.362;4.886;2023-11-19T09:23:56;6.70;;;2.13;;
84150;SDS011;74270;52.362;4.886;2023-11-19T09:26:22;6.57;;;2.20;;
84150;SDS011;74270;52.362;4.886;2023-11-19T09:28:48;9.90;;;2.70;;
84150;SDS011;74270;52.362;4.886;2023-11-19T09:31:17;16.25;;;3.85;;
84150;SDS011;74270;52.362;4.886;2023-11-19T09:33:43;13.48;;;3.88;;
84150;SDS011;74270;52.362;4.886;2023-11-19T09:36:13;18.75;;;4.43;;
84150;SDS011;74270;52.362;4.886;2023-11-19T09:38:43;17.15;;;5.15;;
84150;SDS011;74270;52.362;4.886;2023-11-19T09:41:09;15.52;;;4.40;;
84150;SDS011;74270;52.362;4.886;2023-11-19T09:43:37;15.38;;;4.57;;
84150;SDS011;74270;52.362;4.886;2023-11-19T09:46:09;15.30;;;4.40;;
84150;SDS011;74270;52.362;4.886;2023-11-19T09:48:37;14.48;;;3.95;;
84150;SDS011;74270;52.362;4.886;2023-11-19T09:51:04;15.40;;;4.30;;
84150;SDS011;74270;52.362;4.886;2023-11-19T09:53:30;14.70;;;3.72;;
84150;SDS011;74270;52.362;4.886;2023-11-19T09:55:57;16.33;;;4.43;;
84150;SDS011;74270;52.362;4.886;2023-11-19T09:58:25;15.63;;;4.65;;
84150;SDS011;74270;52.362;4.886;2023-11-19T10:00:51;11.80;;;4.15;;
84150;SDS011;74270;52.362;4.886;2023-11-19T10:03:18;14.25;;;4.03;;
84150;SDS011;74270;52.362;4.886;2023-11-19T10:05:44;13.63;;;3.60;;
84150;SDS011;74270;52.362;4.886;2023-11-19T10:08:10;14.50;;;3.72;;
84150;SDS011;74270;52.362;4.886;2023-11-19T10:10:36;12.38;;;3.83;;
84150;SDS011;74270;52.362;4.886;2023-11-19T10:13:02;15.43;;;3.85;;
84150;SDS011;74270;52.362;4.886;2023-11-19T10:15:28;17.30;;;3.80;;
84150;SDS011;74270;52.362;4.886;2023-11-19T10:17:59;11.88;;;3.42;;
84150;SDS011;74270;52.362;4.886;2023-11-19T10:20:25;10.40;;;3.15;;
84150;SDS011;74270;52.362;4.886;2023-11-19T10:22:54;11.52;;;3.65;;
84150;SDS011;74270;52.362;4.886;2023-11-19T10:25:27;12.52;;;3.88;;
84150;SDS011;74270;52.362;4.886;2023-11-19T10:27:54;9.82;;;3.00;;
84150;SDS011;74270;52.362;4.886;2023-11-19T10:30:27;14.57;;;3.72;;
84150;SDS011;74270;52.362;4.886;2023-11-19T10:33:07;12.18;;;3.28;;
84150;SDS011;74270;52.362;4.886;2023-11-19T10:35:34;13.20;;;3.90;;
84150;SDS011;74270;52.362;4.886;2023-11-19T10:38:00;13.13;;;3.28;;
84150;SDS011;74270;52.362;4.886;2023-11-19T10:40:39;13.15;;;3.38;;
84150;SDS011;74270;52.362;4.886;2023-11-19T10:43:05;12.13;;;3.05;;
84150;SDS011;74270;52.362;4.886;2023-11-19T10:45:32;10.63;;;3.15;;
84150;SDS011;74270;52.362;4.886;2023-11-19T10:47:59;9.45;;;3.00;;
84150;SDS011;74270;52.362;4.886;2023-11-19T10:50:26;11.90;;;3.33;;
84150;SDS011;74270;52.362;4.886;2023-11-19T10:52:54;11.10;;;3.30;;
84150;SDS011;74270;52.362;4.886;2023-11-19T10:55:26;10.88;;;3.33;;
84150;SDS011;74270;52.362;4.886;2023-11-19T10:57:53;9.40;;;2.97;;
84150;SDS011;74270;52.362;4.886;2023-11-19T11:00:23;9.35;;;3.13;;
84150;SDS011;74270;52.362;4.886;2023-11-19T11:02:50;10.55;;;2.95;;
84150;SDS011;74270;52.362;4.886;2023-11-19T11:05:20;7.90;;;2.85;;
84150;SDS011;74270;52.362;4.886;2023-11-19T11:07:46;12.02;;;3.08;;
84150;SDS011;74270;52.362;4.886;2023-11-19T11:10:12;8.30;;;3.13;;
84150;SDS011;74270;52.362;4.886;2023-11-19T11:12:39;10.43;;;3.25;;
84150;SDS011;74270;52.362;4.886;2023-11-19T11:15:06;7.60;;;2.45;;
84150;SDS011;74270;52.362;4.886;2023-11-19T11:17:33;9.52;;;2.33;;
84150;SDS011;74270;52.362;4.886;2023-11-19T11:19:59;8.70;;;2.42;;
84150;SDS011;74270;52.362;4.886;2023-11-19T11:22:25;7.80;;;2.78;;
84150;SDS011;74270;52.362;4.886;2023-11-19T11:25:07;13.07;;;2.60;;
84150;SDS011;74270;52.362;4.886;2023-11-19T11:30:19;10.27;;;2.30;;
84150;SDS011;74270;52.362;4.886;2023-11-19T11:38:08;9.82;;;2.42;;
84150;SDS011;74270;52.362;4.886;2023-11-19T11:40:34;7.80;;;2.70;;
84150;SDS011;74270;52.362;4.886;2023-11-19T11:43:03;10.45;;;2.60;;
84150;SDS011;74270;52.362;4.886;2023-11-19T11:45:36;9.10;;;2.40;;
84150;SDS011;74270;52.362;4.886;2023-11-19T11:48:12;7.10;;;2.15;;
84150;SDS011;74270;52.362;4.886;2023-11-19T11:51:13;7.80;;;1.88;;
84150;SDS011;74270;52.362;4.886;2023-11-19T11:53:33;12.25;;;2.72;;
84150;SDS011;74270;52.362;4.886;2023-11-19T11:56:00;10.57;;;2.47;;
84150;SDS011;74270;52.362;4.886;2023-11-19T11:58:31;12.60;;;2.83;;
84150;SDS011;74270;52.362;4.886;2023-11-19T12:00:57;13.25;;;2.58;;
84150;SDS011;74270;52.362;4.886;2023-11-19T12:03:26;10.98;;;3.03;;
84150;SDS011;74270;52.362;4.886;2023-11-19T12:05:52;16.92;;;3.55;;
84150;SDS011;74270;52.362;4.886;2023-11-19T12:08:19;12.70;;;2.85;;
84150;SDS011;74270;52.362;4.886;2023-11-19T12:10:46;15.35;;;3.38;;
84150;SDS011;74270;52.362;4.886;2023-11-19T12:13:13;18.80;;;3.63;;
84150;SDS011;74270;52.362;4.886;2023-11-19T12:16:21;16.17;;;2.78;;
84150;SDS011;74270;52.362;4.886;2023-11-19T12:18:29;20.92;;;2.92;;
84150;SDS011;74270;52.362;4.886;2023-11-19T12:20:57;18.35;;;3.10;;
84150;SDS011;74270;52.362;4.886;2023-11-19T12:23:25;14.50;;;3.20;;
84150;SDS011;74270;52.362;4.886;2023-11-19T12:25:52;20.40;;;3.40;;
84150;SDS011;74270;52.362;4.886;2023-11-19T12:28:18;19.50;;;3.42;;
84150;SDS011;74270;52.362;4.886;2023-11-19T12:30:44;19.55;;;3.65;;
84150;SDS011;74270;52.362;4.886;2023-11-19T12:33:11;18.00;;;3.33;;
84150;SDS011;74270;52.362;4.886;2023-11-19T12:35:40;19.60;;;3.10;;
84150;SDS011;74270;52.362;4.886;2023-11-19T12:38:07;21.13;;;3.30;;
84150;SDS011;74270;52.362;4.886;2023-11-19T12:40:33;17.33;;;4.28;;
84150;SDS011;74270;52.362;4.886;2023-11-19T12:42:59;19.58;;;4.00;;
84150;SDS011;74270;52.362;4.886;2023-11-19T12:45:35;17.20;;;3.70;;
84150;SDS011;74270;52.362;4.886;2023-11-19T12:48:04;13.63;;;3.00;;
84150;SDS011;74270;52.362;4.886;2023-11-19T12:50:49;19.58;;;3.50;;
84150;SDS011;74270;52.362;4.886;2023-11-19T12:53:17;13.35;;;2.58;;
84150;SDS011;74270;52.362;4.886;2023-11-19T12:55:43;18.58;;;3.17;;
84150;SDS011;74270;52.362;4.886;2023-11-19T12:58:09;16.20;;;3.08;;
84150;SDS011;74270;52.362;4.886;2023-11-19T13:00:35;23.45;;;3.65;;
84150;SDS011;74270;52.362;4.886;2023-11-19T13:03:01;15.13;;;3.28;;
84150;SDS011;74270;52.362;4.886;2023-11-19T13:05:32;17.27;;;3.08;;
84150;SDS011;74270;52.362;4.886;2023-11-19T13:08:02;16.67;;;3.17;;
84150;SDS011;74270;52.362;4.886;2023-11-19T13:10:31;14.45;;;2.60;;
84150;SDS011;74270;52.362;4.886;2023-11-19T13:15:29;17.15;;;2.40;;
84150;SDS011;74270;52.362;4.886;2023-11-19T13:17:57;16.10;;;2.80;;
84150;SDS011;74270;52.362;4.886;2023-11-19T13:20:23;13.77;;;2.78;;
84150;SDS011;74270;52.362;4.886;2023-11-19T13:23:02;14.35;;;3.47;;
84150;SDS011;74270;52.362;4.886;2023-11-19T13:25:30;12.15;;;2.53;;
84150;SDS011;74270;52.362;4.886;2023-11-19T13:27:56;12.18;;;2.50;;
84150;SDS011;74270;52.362;4.886;2023-11-19T13:30:23;12.45;;;2.83;;
84150;SDS011;74270;52.362;4.886;2023-11-19T13:32:49;12.07;;;2.55;;
84150;SDS011;74270;52.362;4.886;2023-11-19T13:35:15;15.02;;;3.13;;
84150;SDS011;74270;52.362;4.886;2023-11-19T13:37:45;11.23;;;1.95;;
84150;SDS011;74270;52.362;4.886;2023-11-19T13:40:11;9.60;;;1.90;;
84150;SDS011;74270;52.362;4.886;2023-11-19T13:42:43;11.13;;;2.53;;
84150;SDS011;74270;52.362;4.886;2023-11-19T13:45:09;9.32;;;2.45;;
84150;SDS011;74270;52.362;4.886;2023-11-19T13:47:37;11.40;;;2.00;;
84150;SDS011;74270;52.362;4.886;2023-11-19T13:50:06;8.65;;;2.40;;
84150;SDS011;74270;52.362;4.886;2023-11-19T13:52:32;7.60;;;1.75;;
84150;SDS011;74270;52.362;4.886;2023-11-19T13:54:58;9.60;;;1.58;;
84150;SDS011;74270;52.362;4.886;2023-11-19T13:57:24;6.18;;;1.50;;
84150;SDS011;74270;52.362;4.886;2023-11-19T13:59:50;7.88;;;1.88;;
84150;SDS011;74270;52.362;4.886;2023-11-19T14:02:16;11.38;;;2.05;;
84150;SDS011;74270;52.362;4.886;2023-11-19T14:04:42;15.20;;;2.28;;
84150;SDS011;74270;52.362;4.886;2023-11-19T14:07:08;8.65;;;2.00;;
84150;SDS011;74270;52.362;4.886;2023-11-19T14:09:34;9.45;;;2.28;;
84150;SDS011;74270;52.362;4.886;2023-11-19T14:12:00;15.88;;;2.88;;
84150;SDS011;74270;52.362;4.886;2023-11-19T14:14:26;8.75;;;2.40;;
